Steyregg, Austria
Current Conditions -  °F | °C
As of 10:20 AM on Sunday 21 Dec 2014 (Local Time) from LOWL Reporting Station
Broken Clouds Broken Clouds  
Wind Chill: 32°   Ceiling: 5000
Heat Index: 41°   Visibility: 6mi
Dew Point: 34°   Wind: 17mph
Humidity: 76%   Direction: 250°WSW
Pressure: 30.45"   Gusts: NA
Location:  48.29°N, 14.39°E
Report Text: LOWL 210820Z 25015KT 230V290 9999 FEW020 SCT022 BKN050 05/01 Q1031 NOSIG
Loading
Personal Weather Stations






























Interactive Weather Map New forecast layout! Learn more

10-Day Weather Forecast

Advertisements
Track Severe Weather on mobile